This week only. Pastebin PRO Accounts Christmas Special! Don't miss out!Want more features on Pastebin? Sign Up, it's FREE!
Guest

Untitled

By: a guest on Aug 24th, 2010  |  syntax: None  |  size: 47.29 KB  |  views: 71  |  expires: Never
download  |  raw  |  embed  |  report abuse  |  print
Text below is selected. Please press Ctrl+C to copy to your clipboard. (⌘+C on Mac)
  1. 11:28:37 T:3244 M:975777792  NOTICE: -----------------------------------------------------------------------
  2. 11:28:37 T:3244 M:975740928  NOTICE: Starting XBMC, Platform: Windows 7, 64-bit (WoW) build 7600. Built on Aug 21 2010 (SVN:33004, compiler 1500)
  3. 11:28:37 T:3244 M:975740928  NOTICE: Intel(R) Core(TM)2 Duo CPU     E8400  @ 3.00GHz
  4. 11:28:37 T:3244 M:975736832  NOTICE: Desktop Resolution: 1786x990 32Bit at 30Hz
  5. 11:28:37 T:3244 M:975736832  NOTICE: Running with administrator rights
  6. 11:28:37 T:3244 M:975736832  NOTICE: special://xbmc/ is mapped to: C:\Program Files (x86)\XBMC
  7. 11:28:37 T:3244 M:975736832  NOTICE: special://xbmcbin/ is mapped to: C:\Program Files (x86)\XBMC
  8. 11:28:37 T:3244 M:975736832  NOTICE: special://masterprofile/ is mapped to: C:\Program Files (x86)\XBMC\portable_data\userdata
  9. 11:28:37 T:3244 M:975736832  NOTICE: special://home/ is mapped to: C:\Program Files (x86)\XBMC\portable_data
  10. 11:28:37 T:3244 M:975736832  NOTICE: special://temp/ is mapped to: C:\Program Files (x86)\XBMC\portable_data\temp
  11. 11:28:37 T:3244 M:975736832  NOTICE: The executable running is: C:\Program Files (x86)\XBMC\XBMC.exe
  12. 11:28:37 T:3244 M:975736832  NOTICE: Log File is located: C:\Program Files (x86)\XBMC\xbmc.log
  13. 11:28:37 T:3244 M:975736832  NOTICE: -----------------------------------------------------------------------
  14. 11:28:37 T:3244 M:975712256  NOTICE: Setup SDL
  15. 11:28:37 T:3244 M:975093760  NOTICE: Found screen: Generic PnP Monitor on NVIDIA GeForce 9400   , adapter 0.
  16. 11:28:37 T:3244 M:975085568  NOTICE: Primary mode: 1786x990 @ 30.00i - Full Screen
  17. 11:28:37 T:3244 M:975085568  NOTICE: Additional mode: 640x480 @ 60.00 - Full Screen
  18. 11:28:37 T:3244 M:975028224  NOTICE: Additional mode: 640x480 @ 59.94 - Full Screen
  19. 11:28:37 T:3244 M:974921728  NOTICE: Additional mode: 720x480 @ 60.00 - Full Screen
  20. 11:28:37 T:3244 M:974897152  NOTICE: Additional mode: 720x480 @ 59.94 - Full Screen
  21. 11:28:37 T:3244 M:974897152  NOTICE: Additional mode: 720x576 @ 60.00 - Full Screen
  22. 11:28:37 T:3244 M:974725120  NOTICE: Previous line repeats 2 times.
  23. 11:28:37 T:3244 M:974725120  NOTICE: Additional mode: 720x576 @ 59.94 - Full Screen
  24. 11:28:37 T:3244 M:974659584  NOTICE: Previous line repeats 2 times.
  25. 11:28:37 T:3244 M:974659584  NOTICE: Additional mode: 800x600 @ 30.00i - Full Screen
  26. 11:28:37 T:3244 M:974663680  NOTICE: Previous line repeats 2 times.
  27. 11:28:37 T:3244 M:974663680  NOTICE: Additional mode: 800x600 @ 29.97i - Full Screen
  28. 11:28:37 T:3244 M:974548992  NOTICE: Previous line repeats 2 times.
  29. 11:28:37 T:3244 M:974548992  NOTICE: Additional mode: 800x600 @ 60.00 - Full Screen
  30. 11:28:37 T:3244 M:974548992  NOTICE: Previous line repeats 2 times.
  31. 11:28:37 T:3244 M:974548992  NOTICE: Additional mode: 800x600 @ 59.94 - Full Screen
  32. 11:28:37 T:3244 M:974524416  NOTICE: Previous line repeats 2 times.
  33. 11:28:37 T:3244 M:974524416  NOTICE: Additional mode: 1024x768 @ 30.00i - Full Screen
  34. 11:28:37 T:3244 M:974499840  NOTICE: Previous line repeats 2 times.
  35. 11:28:37 T:3244 M:974499840  NOTICE: Additional mode: 1024x768 @ 29.97i - Full Screen
  36. 11:28:37 T:3244 M:974499840  NOTICE: Previous line repeats 2 times.
  37. 11:28:37 T:3244 M:974499840  NOTICE: Additional mode: 1024x768 @ 60.00 - Full Screen
  38. 11:28:37 T:3244 M:974499840  NOTICE: Previous line repeats 2 times.
  39. 11:28:37 T:3244 M:974499840  NOTICE: Additional mode: 1024x768 @ 59.94 - Full Screen
  40. 11:28:37 T:3244 M:974520320  NOTICE: Previous line repeats 2 times.
  41. 11:28:37 T:3244 M:974520320  NOTICE: Additional mode: 1152x864 @ 30.00i - Full Screen
  42. 11:28:37 T:3244 M:974499840  NOTICE: Previous line repeats 2 times.
  43. 11:28:37 T:3244 M:974499840  NOTICE: Additional mode: 1152x864 @ 29.97i - Full Screen
  44. 11:28:37 T:3244 M:974499840  NOTICE: Previous line repeats 2 times.
  45. 11:28:37 T:3244 M:974499840  NOTICE: Additional mode: 1152x864 @ 60.00 - Full Screen
  46. 11:28:37 T:3244 M:974499840  NOTICE: Previous line repeats 2 times.
  47. 11:28:37 T:3244 M:974499840  NOTICE: Additional mode: 1152x864 @ 59.94 - Full Screen
  48. 11:28:37 T:3244 M:974499840  NOTICE: Previous line repeats 2 times.
  49. 11:28:37 T:3244 M:974499840  NOTICE: Additional mode: 1176x664 @ 60.00 - Full Screen
  50. 11:28:37 T:3244 M:974516224  NOTICE: Previous line repeats 2 times.
  51. 11:28:37 T:3244 M:974516224  NOTICE: Additional mode: 1176x664 @ 59.94 - Full Screen
  52. 11:28:37 T:3244 M:974499840  NOTICE: Previous line repeats 2 times.
  53. 11:28:37 T:3244 M:974499840  NOTICE: Additional mode: 1280x720 @ 30.00i - Full Screen
  54. 11:28:37 T:3244 M:974499840  NOTICE: Previous line repeats 2 times.
  55. 11:28:37 T:3244 M:974499840  NOTICE: Additional mode: 1280x720 @ 29.97i - Full Screen
  56. 11:28:37 T:3244 M:974499840  NOTICE: Previous line repeats 2 times.
  57. 11:28:37 T:3244 M:974499840  NOTICE: Additional mode: 1280x720 @ 60.00 - Full Screen
  58. 11:28:37 T:3244 M:974499840  NOTICE: Additional mode: 1280x720 @ 59.94 - Full Screen
  59. 11:28:37 T:3244 M:974499840  NOTICE: Additional mode: 1280x768 @ 30.00i - Full Screen
  60. 11:28:37 T:3244 M:974499840  NOTICE: Previous line repeats 2 times.
  61. 11:28:37 T:3244 M:974499840  NOTICE: Additional mode: 1280x768 @ 29.97i - Full Screen
  62. 11:28:37 T:3244 M:974499840  NOTICE: Previous line repeats 2 times.
  63. 11:28:37 T:3244 M:974499840  NOTICE: Additional mode: 1280x768 @ 60.00 - Full Screen
  64. 11:28:37 T:3244 M:974499840  NOTICE: Previous line repeats 2 times.
  65. 11:28:37 T:3244 M:974499840  NOTICE: Additional mode: 1280x768 @ 59.94 - Full Screen
  66. 11:28:37 T:3244 M:974499840  NOTICE: Previous line repeats 2 times.
  67. 11:28:37 T:3244 M:974499840  NOTICE: Additional mode: 1280x800 @ 30.00i - Full Screen
  68. 11:28:37 T:3244 M:974499840  NOTICE: Previous line repeats 2 times.
  69. 11:28:37 T:3244 M:974499840  NOTICE: Additional mode: 1280x800 @ 29.97i - Full Screen
  70. 11:28:37 T:3244 M:974499840  NOTICE: Previous line repeats 2 times.
  71. 11:28:37 T:3244 M:974499840  NOTICE: Additional mode: 1280x800 @ 60.00 - Full Screen
  72. 11:28:37 T:3244 M:974499840  NOTICE: Previous line repeats 2 times.
  73. 11:28:37 T:3244 M:974499840  NOTICE: Additional mode: 1280x800 @ 59.94 - Full Screen
  74. 11:28:37 T:3244 M:974499840  NOTICE: Previous line repeats 2 times.
  75. 11:28:37 T:3244 M:974499840  NOTICE: Additional mode: 1280x960 @ 30.00i - Full Screen
  76. 11:28:37 T:3244 M:974508032  NOTICE: Previous line repeats 2 times.
  77. 11:28:37 T:3244 M:974508032  NOTICE: Additional mode: 1280x960 @ 29.97i - Full Screen
  78. 11:28:37 T:3244 M:974499840  NOTICE: Previous line repeats 2 times.
  79. 11:28:37 T:3244 M:974499840  NOTICE: Additional mode: 1280x960 @ 60.00 - Full Screen
  80. 11:28:37 T:3244 M:974499840  NOTICE: Previous line repeats 2 times.
  81. 11:28:37 T:3244 M:974499840  NOTICE: Additional mode: 1280x960 @ 59.94 - Full Screen
  82. 11:28:37 T:3244 M:974499840  NOTICE: Previous line repeats 2 times.
  83. 11:28:37 T:3244 M:974499840  NOTICE: Additional mode: 1280x1024 @ 30.00i - Full Screen
  84. 11:28:37 T:3244 M:974499840  NOTICE: Previous line repeats 2 times.
  85. 11:28:37 T:3244 M:974499840  NOTICE: Additional mode: 1280x1024 @ 29.97i - Full Screen
  86. 11:28:37 T:3244 M:974516224  NOTICE: Previous line repeats 2 times.
  87. 11:28:37 T:3244 M:974516224  NOTICE: Additional mode: 1280x1024 @ 60.00 - Full Screen
  88. 11:28:37 T:3244 M:974499840  NOTICE: Previous line repeats 2 times.
  89. 11:28:37 T:3244 M:974499840  NOTICE: Additional mode: 1280x1024 @ 59.94 - Full Screen
  90. 11:28:37 T:3244 M:974499840  NOTICE: Previous line repeats 2 times.
  91. 11:28:37 T:3244 M:974499840  NOTICE: Additional mode: 1360x768 @ 30.00i - Full Screen
  92. 11:28:37 T:3244 M:974499840  NOTICE: Previous line repeats 2 times.
  93. 11:28:37 T:3244 M:974499840  NOTICE: Additional mode: 1360x768 @ 29.97i - Full Screen
  94. 11:28:37 T:3244 M:974499840  NOTICE: Previous line repeats 2 times.
  95. 11:28:37 T:3244 M:974499840  NOTICE: Additional mode: 1360x768 @ 60.00 - Full Screen
  96. 11:28:37 T:3244 M:974528512  NOTICE: Previous line repeats 2 times.
  97. 11:28:37 T:3244 M:974528512  NOTICE: Additional mode: 1360x768 @ 59.94 - Full Screen
  98. 11:28:37 T:3244 M:974499840  NOTICE: Previous line repeats 2 times.
  99. 11:28:37 T:3244 M:974499840  NOTICE: Additional mode: 1600x900 @ 30.00i - Full Screen
  100. 11:28:37 T:3244 M:974499840  NOTICE: Previous line repeats 2 times.
  101. 11:28:37 T:3244 M:974499840  NOTICE: Additional mode: 1600x900 @ 29.97i - Full Screen
  102. 11:28:37 T:3244 M:974499840  NOTICE: Previous line repeats 2 times.
  103. 11:28:37 T:3244 M:974499840  NOTICE: Additional mode: 1600x900 @ 60.00 - Full Screen
  104. 11:28:37 T:3244 M:974499840  NOTICE: Previous line repeats 2 times.
  105. 11:28:37 T:3244 M:974499840  NOTICE: Additional mode: 1600x900 @ 59.94 - Full Screen
  106. 11:28:37 T:3244 M:974528512  NOTICE: Previous line repeats 2 times.
  107. 11:28:37 T:3244 M:974528512  NOTICE: Additional mode: 1600x1024 @ 30.00i - Full Screen
  108. 11:28:37 T:3244 M:974499840  NOTICE: Previous line repeats 2 times.
  109. 11:28:37 T:3244 M:974499840  NOTICE: Additional mode: 1600x1024 @ 29.97i - Full Screen
  110. 11:28:37 T:3244 M:974499840  NOTICE: Previous line repeats 2 times.
  111. 11:28:37 T:3244 M:974499840  NOTICE: Additional mode: 1600x1024 @ 60.00 - Full Screen
  112. 11:28:37 T:3244 M:974499840  NOTICE: Previous line repeats 2 times.
  113. 11:28:37 T:3244 M:974499840  NOTICE: Additional mode: 1600x1024 @ 59.94 - Full Screen
  114. 11:28:37 T:3244 M:974708736  NOTICE: Previous line repeats 2 times.
  115. 11:28:37 T:3244 M:974708736  NOTICE: Additional mode: 1680x1050 @ 30.00i - Full Screen
  116. 11:28:37 T:3244 M:974471168  NOTICE: Previous line repeats 2 times.
  117. 11:28:37 T:3244 M:974471168  NOTICE: Additional mode: 1680x1050 @ 29.97i - Full Screen
  118. 11:28:37 T:3244 M:974344192  NOTICE: Previous line repeats 2 times.
  119. 11:28:37 T:3244 M:974344192  NOTICE: Additional mode: 1680x1050 @ 60.00 - Full Screen
  120. 11:28:37 T:3244 M:974344192  NOTICE: Previous line repeats 2 times.
  121. 11:28:37 T:3244 M:974344192  NOTICE: Additional mode: 1680x1050 @ 59.94 - Full Screen
  122. 11:28:37 T:3244 M:974344192  NOTICE: Previous line repeats 2 times.
  123. 11:28:37 T:3244 M:974344192  NOTICE: Additional mode: 1768x992 @ 30.00i - Full Screen
  124. 11:28:37 T:3244 M:974344192  NOTICE: Previous line repeats 2 times.
  125. 11:28:37 T:3244 M:974344192  NOTICE: Additional mode: 1768x992 @ 29.97i - Full Screen
  126. 11:28:37 T:3244 M:974364672  NOTICE: Previous line repeats 2 times.
  127. 11:28:37 T:3244 M:974364672  NOTICE: Additional mode: 1768x992 @ 60.00 - Full Screen
  128. 11:28:37 T:3244 M:974344192  NOTICE: Previous line repeats 2 times.
  129. 11:28:37 T:3244 M:974344192  NOTICE: Additional mode: 1768x992 @ 59.94 - Full Screen
  130. 11:28:37 T:3244 M:974344192  NOTICE: Previous line repeats 2 times.
  131. 11:28:37 T:3244 M:974344192  NOTICE: Additional mode: 1920x1080 @ 30.00i - Full Screen
  132. 11:28:37 T:3244 M:974344192  NOTICE: Additional mode: 1920x1080 @ 29.97i - Full Screen
  133. 11:28:37 T:3244 M:974344192  NOTICE: Additional mode: 1920x1080 @ 60.00 - Full Screen
  134. 11:28:37 T:3244 M:974344192  NOTICE: Additional mode: 1920x1080 @ 59.94 - Full Screen
  135. 11:28:37 T:3244 M:974409728  NOTICE: Additional mode: 1440x480 @ 60.00 - Full Screen
  136. 11:28:37 T:3244 M:974618624  NOTICE: Previous line repeats 2 times.
  137. 11:28:37 T:3244 M:974618624  NOTICE: Additional mode: 1440x480 @ 59.94 - Full Screen
  138. 11:28:37 T:3244 M:974827520  NOTICE: Previous line repeats 2 times.
  139. 11:28:37 T:3244 M:974827520  NOTICE: Additional mode: 1440x480 @ 29.97i - Full Screen
  140. 11:28:37 T:3244 M:974897152  NOTICE: Additional mode: 1440x480 @ 30.00i - Full Screen
  141. 11:28:37 T:3244 M:974802944  NOTICE: Additional mode: 1786x990 @ 30.00i - Full Screen
  142. 11:28:37 T:3244 M:975011840  NOTICE: Previous line repeats 2 times.
  143. 11:28:37 T:3244 M:975011840  NOTICE: Additional mode: 1786x990 @ 29.97i - Full Screen
  144. 11:28:37 T:3244 M:975220736  NOTICE: Previous line repeats 2 times.
  145. 11:28:37 T:3244 M:975220736  NOTICE: Additional mode: 1786x990 @ 60.00 - Full Screen
  146. 11:28:37 T:3244 M:974598144  NOTICE: Previous line repeats 2 times.
  147. 11:28:37 T:3244 M:974598144  NOTICE: Additional mode: 1786x990 @ 59.94 - Full Screen
  148. 11:28:37 T:3244 M:975011840  NOTICE: Previous line repeats 2 times.
  149. 11:28:37 T:3244 M:975011840  NOTICE: load settings...
  150. 11:28:37 T:3244 M:974688256  NOTICE: special://profile/ is mapped to: special://masterprofile/
  151. 11:28:37 T:3244 M:974684160  NOTICE: loading special://masterprofile/guisettings.xml
  152. 11:28:37 T:3244 M:973787136  NOTICE: Getting hardware information now...
  153. 11:28:37 T:3244 M:973787136  NOTICE: Checking resolution 12
  154. 11:28:37 T:3244 M:973344768  NOTICE: Loading player core factory settings from special://xbmc/system/playercorefactory.xml.
  155. 11:28:37 T:3244 M:973189120  NOTICE: Loaded playercorefactory configuration
  156. 11:28:37 T:3244 M:973160448  NOTICE: Loading player core factory settings from special://masterprofile/playercorefactory.xml.
  157. 11:28:37 T:3244 M:973160448  NOTICE: special://masterprofile/playercorefactory.xml does not exist. Skipping.
  158. 11:28:37 T:3244 M:973152256  NOTICE: Loaded advancedsettings.xml from special://profile/advancedsettings.xml
  159. 11:28:37 T:3244 M:973144064  NOTICE: Contents of special://profile/advancedsettings.xml are...
  160.                                             <advancedsettings>
  161.                                               <navigatevirtualkeyboard>true</navigatevirtualkeyboard>
  162.                                               <videolibrary>
  163.                                                 <cleanonupdate>true</cleanonupdate>
  164.                                                 <hideallitems>true</hideallitems>
  165.                                                 <hideemptyseries>false</hideemptyseries>
  166.                                                 <recentlyaddeditems>250</recentlyaddeditems>
  167.                                               </videolibrary>
  168.                                               <myvideos>
  169.                                                 <extractthumb>false</extractthumb>
  170.                                               </myvideos>
  171.                                               <sorttokens>
  172.                                                 <token separators="">&quot;</token>
  173.                                               </sorttokens>
  174.                                               <tvshowmatching>
  175.                                                 <regexp>\[[Ss]([0-9]+)\]_\[[Ee]([0-9]+)([^\\/]*)</regexp>
  176.                                                 <regexp>[\._ \-]([0-9]+)x([0-9]+)([^\\/]*)</regexp>
  177.                                                 <regexp>[\._ \-][Ss]([0-9]+)[\.\-]?[Ee]([0-9]+)([^\\/]*)</regexp>
  178.                                                 <regexp>[\._ \-]([0-9]+)([0-9][0-9])([\._ \-][^\\/]*)</regexp>
  179.                                               </tvshowmatching>
  180.                                             </advancedsettings>
  181. 11:28:37 T:3244 M:973111296  NOTICE: Getting hardware information now...
  182. 11:28:37 T:3244 M:973111296  NOTICE: Checking resolution 12
  183. 11:28:37 T:3244 M:973111296  NOTICE: Default DVD Player: dvdplayer
  184. 11:28:37 T:3244 M:973111296  NOTICE: Default Video Player: dvdplayer
  185. 11:28:37 T:3244 M:973111296  NOTICE: Default Audio Player: paplayer
  186. 11:28:37 T:3244 M:973111296  NOTICE: Enabled debug logging due to GUI setting (2)
  187. 11:28:37 T:3244 M:973864960  NOTICE: Loading media sources from special://masterprofile/sources.xml
  188. 11:28:37 T:3244 M:973869056    INFO: creating subdirectories
  189. 11:28:37 T:3244 M:973869056    INFO: userdata folder: special://masterprofile/
  190. 11:28:37 T:3244 M:973869056    INFO: recording folder:
  191. 11:28:37 T:3244 M:973869056    INFO: screenshots folder:C:\Users\Kevin\Other Stuff\XBMC\Screen Shot\
  192. 11:28:37 T:3244 M:973869056    INFO: thumbnails folder: special://masterprofile/Thumbnails
  193. 11:28:37 T:3244 M:973869056    INFO: load language info file: special://xbmc/language/English/langinfo.xml
  194. 11:28:37 T:3244 M:973856768    INFO: load language file:special://xbmc/language/English/strings.xml
  195. 11:28:37 T:3244 M:973680640   DEBUG: Win32DllLoader::Load(special://xbmcbin/system/cpluff.dll)
  196. 11:28:37 T:3244 M:973529088   DEBUG: Win32DllLoader::Load(special://xbmcbin/system/libexpat.dll)
  197. 11:28:37 T:3244 M:972652544   DEBUG: ADDON: cpluff: 'Plug-in script.games.rom.collection.browser has been installed.'
  198. 11:28:37 T:3244 M:972652544   DEBUG: ADDON: cpluff: 'Plug-in script.xbmc.subtitles has been installed.'
  199. 11:28:37 T:3244 M:972652544   DEBUG: ADDON: cpluff: 'Plug-in repository.googlecode.dandar3-xbmc-addons has been installed.'
  200. 11:28:37 T:3244 M:972652544   DEBUG: ADDON: cpluff: 'Plug-in metadata.albums.allmusic.com has been installed.'
  201. 11:28:37 T:3244 M:972623872   DEBUG: ADDON: cpluff: 'Plug-in repository.xbmc.org has been installed.'
  202. 11:28:37 T:3244 M:972623872   DEBUG: ADDON: cpluff: 'Plug-in screensaver.xbmc.builtin.black has been installed.'
  203. 11:28:37 T:3244 M:972623872   DEBUG: ADDON: cpluff: 'Plug-in screensaver.rsxs.euphoria has been installed.'
  204. 11:28:37 T:3244 M:972623872   DEBUG: ADDON: cpluff: 'Plug-in repository.bluecop.xbmc-plugins has been installed.'
  205. 11:28:37 T:3244 M:972623872   DEBUG: ADDON: cpluff: 'Plug-in plugin.video.youtube.beta has been installed.'
  206. 11:28:37 T:3244 M:972623872   DEBUG: ADDON: cpluff: 'Plug-in visualization.projectm has been installed.'
  207. 11:28:37 T:3244 M:972623872   DEBUG: ADDON: cpluff: 'Plug-in script.module.simplejson has been installed.'
  208. 11:28:37 T:3244 M:972623872   DEBUG: ADDON: cpluff: 'Plug-in screensaver.xbmc.builtin.dim has been installed.'
  209. 11:28:37 T:3244 M:972623872   DEBUG: ADDON: cpluff: 'Plug-in script.favourites has been installed.'
  210. 11:28:37 T:3244 M:972623872   DEBUG: ADDON: cpluff: 'Plug-in net.rieter.xot.repository has been installed.'
  211. 11:28:37 T:3244 M:972623872   DEBUG: ADDON: cpluff: 'Plug-in metadata.themoviedb.org has been installed.'
  212. 11:28:37 T:3244 M:972623872   DEBUG: ADDON: cpluff: 'Plug-in metadata.artists.allmusic.com has been installed.'
  213. 11:28:37 T:3244 M:972623872   DEBUG: ADDON: cpluff: 'Plug-in xbmc.metadata has been installed.'
  214. 11:28:37 T:3244 M:972623872   DEBUG: ADDON: cpluff: 'Plug-in plugin.video.mtvn has been installed.'
  215. 11:28:37 T:3244 M:972623872   DEBUG: ADDON: cpluff: 'Plug-in skin.confluence has been installed.'
  216. 11:28:37 T:3244 M:972623872   DEBUG: ADDON: cpluff: 'Plug-in repository.queeup has been installed.'
  217. 11:28:37 T:3244 M:972623872   DEBUG: ADDON: cpluff: 'Plug-in skin.night has been installed.'
  218. 11:28:37 T:3244 M:972623872   DEBUG: ADDON: cpluff: 'Plug-in script.cu.lyrics has been installed.'
  219. 11:28:37 T:3244 M:972623872   DEBUG: ADDON: cpluff: 'Plug-in plugin.video.fox.news has been installed.'
  220. 11:28:37 T:3244 M:972623872   DEBUG: ADDON: cpluff: 'Plug-in visualization.glspectrum has been installed.'
  221. 11:28:37 T:3244 M:972623872   DEBUG: ADDON: cpluff: 'Plug-in xbmc.gui has been installed.'
  222. 11:28:37 T:3244 M:972623872   DEBUG: ADDON: cpluff: 'Plug-in visualization.milkdrop has been installed.'
  223. 11:28:37 T:3244 M:972623872   DEBUG: ADDON: cpluff: 'Plug-in script.module.pil has been installed.'
  224. 11:28:37 T:3244 M:972623872   DEBUG: ADDON: cpluff: 'Plug-in visualization.dxspectrum has been installed.'
  225. 11:28:37 T:3244 M:972623872   DEBUG: ADDON: cpluff: 'Plug-in script.logo-downloader has been installed.'
  226. 11:28:37 T:3244 M:972623872   DEBUG: ADDON: cpluff: 'Plug-in xbmc.core has been installed.'
  227. 11:28:37 T:3244 M:972623872   DEBUG: ADDON: cpluff: 'Plug-in script.recentlyadded has been installed.'
  228. 11:28:37 T:3244 M:972623872   DEBUG: ADDON: cpluff: 'Plug-in plugin.video.youtube has been installed.'
  229. 11:28:37 T:3244 M:972623872   DEBUG: ADDON: cpluff: 'Plug-in screensaver.xbmc.builtin.slideshow has been installed.'
  230. 11:28:37 T:3244 M:972623872   DEBUG: ADDON: cpluff: 'Plug-in skin.MiniMeedia Waffa! has been installed.'
  231. 11:28:37 T:3244 M:972623872   DEBUG: ADDON: cpluff: 'Plug-in skin.influence has been installed.'
  232. 11:28:37 T:3244 M:972623872   DEBUG: ADDON: cpluff: 'Plug-in script.audio.grooveshark has been installed.'
  233. 11:28:37 T:3244 M:972623872   DEBUG: ADDON: cpluff: 'Plug-in plugin.program.SABnzbd has been installed.'
  234. 11:28:37 T:3244 M:972623872   DEBUG: ADDON: cpluff: 'Plug-in metadata.common.htbackdrops.com has been installed.'
  235. 11:28:37 T:3244 M:972623872   DEBUG: ADDON: cpluff: 'Plug-in metadata.tvdb.com has been installed.'
  236. 11:28:37 T:3244 M:972623872   DEBUG: ADDON: cpluff: 'Plug-in metadata.common.allmusic.com has been installed.'
  237. 11:28:37 T:3244 M:972623872   DEBUG: ADDON: cpluff: 'Plug-in metadata.allmusic.com has been installed.'
  238. 11:28:37 T:3244 M:972623872   DEBUG: ADDON: cpluff: 'Plug-in weather.xbmc.builtin has been installed.'
  239. 11:28:37 T:3244 M:972623872   DEBUG: ADDON: cpluff: 'Plug-in plugin.video.apple.movie.trailers.lite has been installed.'
  240. 11:28:37 T:3244 M:972595200   DEBUG: ADDON: cpluff: 'Plug-in metadata.common.last.fm has been installed.'
  241. 11:28:37 T:3244 M:972595200   DEBUG: ADDON: cpluff: 'Plug-in metadata.common.themoviedb.org has been installed.'
  242. 11:28:37 T:3244 M:972595200   DEBUG: ADDON: cpluff: 'Plug-in metadata.common.dtrailer.com has been installed.'
  243. 11:28:37 T:3244 M:972595200   DEBUG: ADDON: cpluff: 'Plug-in xbmc.python has been installed.'
  244. 11:28:37 T:3244 M:972595200   DEBUG: ADDON: cpluff: 'Plug-in script.module.elementtree has been installed.'
  245. 11:28:37 T:3244 M:972595200   DEBUG: ADDON: cpluff: 'Plug-in xbmc.addon has been installed.'
  246. 11:28:37 T:3244 M:972595200   DEBUG: ADDON: cpluff: 'Plug-in visualization.waveform has been installed.'
  247. 11:28:37 T:3244 M:972595200   DEBUG: ADDON: cpluff: 'Plug-in screensaver.rsxs.plasma has been installed.'
  248. 11:28:37 T:3244 M:972595200   DEBUG: ADDON: cpluff: 'Plug-in script.module.pysqlite has been installed.'
  249. 11:28:37 T:3244 M:972595200   DEBUG: ADDON: cpluff: 'Plug-in metadata.mtv.com has been installed.'
  250. 11:28:37 T:3244 M:972595200   DEBUG: ADDON: cpluff: 'Plug-in visualization.itunes has been installed.'
  251. 11:28:37 T:3244 M:972595200   DEBUG: ADDON: cpluff: 'Plug-in metadata.common.hdtrailers.net has been installed.'
  252. 11:28:37 T:3244 M:972595200   DEBUG: ADDON: cpluff: 'Not all directories were successfully scanned.'
  253. 11:28:37 T:3300 M:972587008   DEBUG: thread start, auto delete: 0
  254. 11:28:37 T:3244 M:971751424   DEBUG: CWinSystemWin32::ResizeInternal - resizing due to size change (0,0,1786,990 fullscreen)->(0,0,1786,990 fullscreen)
  255. 11:28:37 T:3244 M:971743232   DEBUG: CWinEventsWin32::WndProcWindow is active
  256. 11:28:37 T:3244 M:971616256   DEBUG: CWinEventsWin32::WndProcWindow gained focus
  257. 11:28:37 T:3244 M:971612160   DEBUG: CRenderSystemDX::InitRenderSystem - trying D3D9Ex...
  258. 11:28:37 T:3244 M:970227712   DEBUG: CRenderSystemDX::InitRenderSystem - using D3D9Ex
  259. 11:28:37 T:3244 M:969818112   DEBUG: CRenderSystemDX::CreateDevice on adapter 0
  260. 11:28:37 T:3244 M:940646400   DEBUG: CRenderSystemDX::CreateDevice - adapter 0: nvd3dum.dll, NVIDIA GeForce 9400   , VendorId 4318, DeviceId 2154
  261. 11:28:37 T:3244 M:940642304   DEBUG: CRenderSystemDX::CreateDevice - using D3DCAPS2_DYNAMICTEXTURES
  262. 11:28:37 T:3244 M:940642304   DEBUG: CRenderSystemDX::CreateDevice - texture caps: 0x0001ECC5
  263. 11:28:37 T:3244 M:940642304   DEBUG: CRenderSystemDX::CreateDevice - RENDER_CAPS_DXT
  264. 11:28:37 T:3244 M:940642304   DEBUG: CRenderSystemDX::CreateDevice - RENDER_CAPS_NPOT
  265. 11:28:37 T:3244 M:940642304   DEBUG: CRenderSystemDX::CreateDevice - RENDER_CAPS_DXT_NPOT
  266. 11:28:37 T:3244 M:940408832   DEBUG: CWinSystemWin32::SetFullScreen (true fullscreen) on screen 0 with size 1786x990, refresh 30.000000i
  267. 11:28:37 T:3244 M:939053056    INFO: load default splash image: C:\Program Files (x86)\XBMC\media\Splash.png
  268. 11:28:37 T:3244 M:938950656   DEBUG: Win32DllLoader::Load(special://xbmcbin/system/ImageLib.dll)
  269. 11:28:37 T:3244 M:935673856    INFO: load keymapping
  270. 11:28:37 T:3244 M:935608320    INFO: Loading special://xbmc/system/keymaps/gamepad.xml
  271. 11:28:37 T:3244 M:935575552    INFO: Loading special://xbmc/system/keymaps/joystick.Alienware.Dual.Compatible.Controller.xml
  272. 11:28:37 T:3244 M:935522304    INFO: Loading special://xbmc/system/keymaps/joystick.AppleRemote.xml
  273. 11:28:37 T:3244 M:935510016    INFO: Loading special://xbmc/system/keymaps/joystick.Harmony.xml
  274. 11:28:37 T:3244 M:935485440    INFO: Loading special://xbmc/system/keymaps/joystick.Interact.AxisPad.xml
  275. 11:28:37 T:3244 M:935477248    INFO: Loading special://xbmc/system/keymaps/joystick.Logitech.RumblePad.2.xml
  276. 11:28:37 T:3244 M:935469056    INFO: Loading special://xbmc/system/keymaps/joystick.Microsoft.Xbox.360.Controller.xml
  277. 11:28:37 T:3244 M:935452672    INFO: Loading special://xbmc/system/keymaps/joystick.Microsoft.Xbox.Controller.S.xml
  278. 11:28:37 T:3244 M:935428096    INFO: Loading special://xbmc/system/keymaps/joystick.PS3.Remote.Keyboard.xml
  279. 11:28:37 T:3244 M:935415808    INFO: Loading special://xbmc/system/keymaps/joystick.WiiRemote.xml
  280. 11:28:37 T:3244 M:935403520    INFO: Loading special://xbmc/system/keymaps/keyboard.xml
  281. 11:28:37 T:3244 M:935383040    INFO: Loading special://xbmc/system/keymaps/remote.xml
  282. 11:28:38 T:3244 M:935337984    INFO: Loading special://xbmc/system/IRSSmap.xml
  283. 11:28:38 T:3244 M:935333888    INFO: * Adding remote mapping for device 'Microsoft MCE'
  284. 11:28:38 T:3244 M:935333888    INFO: * Adding remote mapping for device 'Abstract'
  285. 11:28:38 T:3244 M:935333888   DEBUG: CButtonTranslator::Load - no userdata IRSSmap.xml found, skipping
  286. 11:28:38 T:3244 M:935333888    INFO: GUI format 1786x990 1786x990 @ 30.00i - Full Screen
  287. 11:28:38 T:3244 M:935329792  NOTICE: initializing playlistplayer
  288. 11:28:38 T:3244 M:935329792  NOTICE: DONE initializing playlistplayer
  289. 11:28:38 T:3244 M:935329792   DEBUG: DPMS: supported power-saving modes: OFF STANDBY
  290. 11:28:38 T:3244 M:934858752    INFO:   delete old skin...
  291. 11:28:38 T:3244 M:933224448   DEBUG: ------ Window Deinit (Pointer.xml) ------
  292. 11:28:38 T:3244 M:933220352   DEBUG: ------ Window Deinit (DialogMuteBug.xml) ------
  293. 11:28:38 T:3244 M:933208064    INFO:   load skin from:C:\Program Files (x86)\XBMC\addons\skin.MiniMeedia Waffa!
  294. 11:28:38 T:3244 M:933208064    INFO: Default 4:3 resolution directory is C:\Program Files (x86)\XBMC\addons\skin.MiniMeedia Waffa!\720p
  295. 11:28:38 T:3244 M:933208064    INFO: Default 16:9 resolution directory is C:\Program Files (x86)\XBMC\addons\skin.MiniMeedia Waffa!\720p
  296. 11:28:38 T:3244 M:933208064    INFO: Loading skin includes from C:\Program Files (x86)\XBMC\addons\skin.MiniMeedia Waffa!\720p\includes.xml
  297. 11:28:38 T:3244 M:929005568    INFO:   load fonts for skin...
  298. 11:28:38 T:3244 M:928989184    INFO: Loading colors from C:\Program Files (x86)\XBMC\addons\skin.MiniMeedia Waffa!\colors\red.xml
  299. 11:28:38 T:3244 M:928989184    INFO: Loading fonts from C:\Program Files (x86)\XBMC\addons\skin.MiniMeedia Waffa!\720p\Font.xml
  300. 11:28:38 T:3244 M:923033600    INFO:   load new skin...
  301. 11:28:38 T:3244 M:923033600    INFO: Loading skin file: Home.xml
  302. 11:28:38 T:3244 M:922648576    INFO: Loading user windows, path C:\Program Files (x86)\XBMC\addons\skin.MiniMeedia Waffa!\720p
  303. 11:28:38 T:3244 M:922546176   DEBUG: Load Skin XML: 101.50ms
  304. 11:28:38 T:3244 M:922546176    INFO:   initialize new skin...
  305. 11:28:38 T:3244 M:922546176    INFO: Loading skin file: Pointer.xml
  306. 11:28:38 T:3244 M:922521600    INFO: Loading skin file: DialogVolumeBar.xml
  307. 11:28:38 T:3244 M:922517504    INFO: Loading skin file: DialogSeekBar.xml
  308. 11:28:38 T:3244 M:922513408    INFO: Loading skin file: DialogKaiToast.xml
  309. 11:28:38 T:3244 M:922509312    INFO: Loading skin file: DialogMuteBug.xml
  310. 11:28:38 T:3244 M:922505216    INFO: Loading skin file: DialogVolumeBar.xml
  311. 11:28:38 T:3244 M:922505216    INFO: Loading skin file: DialogKaiToast.xml
  312. 11:28:38 T:3244 M:922505216    INFO: Loading skin file: DialogSeekBar.xml
  313. 11:28:38 T:3244 M:922505216    INFO: Loading skin file: DialogBusy.xml
  314. 11:28:38 T:3244 M:922492928   DEBUG: CGUIAudioManager::Initialize
  315. 11:28:38 T:3244 M:922492928   DEBUG: CAudioContext::SetActiveDevice - SetActiveDevice from 1 to 2
  316. 11:28:38 T:3244 M:922492928   DEBUG: CAudioContext::RemoveActiveDevice - Removing device 1
  317. 11:28:38 T:3244 M:922148864   DEBUG: CWDSound::direct_sound_enumerator_member_callback - found Device: Primary Sound Driver
  318. 11:28:38 T:3244 M:922148864   DEBUG: CWDSound::direct_sound_enumerator_member_callback - found Device: NVIDIA HDMI Out (NVIDIA High Definition Audio)
  319. 11:28:38 T:3244 M:922148864   DEBUG: CWDSound::direct_sound_enumerator_member_callback - found Device: Digital Audio (S/PDIF) (2- High Definition Audio Device)
  320. 11:28:38 T:3244 M:922148864   DEBUG: CAudioContext::SetActiveDevice - selecting NVIDIA HDMI Out (NVIDIA High Definition Audio) as output devices
  321. 11:28:38 T:3244 M:921956352    INFO: Loading special://xbmc/sounds/Awesome, Inc/sounds.xml
  322. 11:28:38 T:3244 M:921948160    INFO:   skin loaded...
  323. 11:28:38 T:3244 M:921948160   DEBUG: Activating window ID: 12999
  324. 11:28:38 T:3244 M:921944064   DEBUG: Checking if window ID 12999 is locked.
  325. 11:28:38 T:3244 M:920477696   DEBUG: ------ Window Init (Startup.xml) ------
  326. 11:28:38 T:3244 M:920477696    INFO: Loading skin file: Startup.xml
  327. 11:28:38 T:3244 M:920473600    INFO: removing tempfiles
  328. 11:28:38 T:3244 M:920473600  NOTICE: initialize done
  329. 11:28:38 T:3244 M:920473600  NOTICE: Running the application...
  330. 11:28:38 T:3244 M:920473600   DEBUG: CApplication::ExecuteXBMCAction : Translating ReplaceWindow(Home)
  331. 11:28:38 T:3244 M:920473600   DEBUG: CApplication::ExecuteXBMCAction : To ReplaceWindow(Home)
  332. 11:28:38 T:3244 M:920469504   DEBUG: Activating window ID: 10000
  333. 11:28:38 T:3244 M:920469504   DEBUG: Checking if window ID 10000 is locked.
  334. 11:28:38 T:3244 M:920469504   DEBUG: ------ Window Deinit (Startup.xml) ------
  335. 11:28:38 T:3244 M:920469504   DEBUG: ------ Window Init (Home.xml) ------
  336. 11:28:38 T:3244 M:920391680   DEBUG: XBPython::Process - no profile autoexec.py (C:\Program Files (x86)\XBMC\portable_data\userdata\autoexec.py) found, skipping
  337. 11:28:38 T:3244 M:920379392   DEBUG: CNetwork::NetworkMessage - Starting network services
  338. 11:28:38 T:3244 M:920371200  NOTICE: ES: Starting event server
  339. 11:28:38 T:2628 M:920363008   DEBUG: thread start, auto delete: 0
  340. 11:28:38 T:2628 M:920363008  NOTICE: ES: Starting UDP Event server on 127.0.0.1:9777
  341. 11:28:38 T:3244 M:920342528   DEBUG: CLastfmScrobbler: Clearing session.
  342. 11:28:38 T:3244 M:920334336   DEBUG: CLibrefmScrobbler: Clearing session.
  343. 11:28:38 T:2628 M:920330240  NOTICE: UDP: Listening on port 9777
  344. 11:28:38 T:1800 M:920289280   DEBUG: thread start, auto delete: 0
  345. 11:28:38 T:1800 M:920248320    INFO: JSONRPC Server: Successfully initialized
  346. 11:28:38 T:1128 M:919900160   DEBUG: thread start, auto delete: 1
  347. 11:28:38 T:4244 M:919601152   DEBUG: thread start, auto delete: 0
  348. 11:28:38 T:4244 M:919588864   DEBUG: Win32DllLoader::Load(special://xbmcbin/system/libcurl.dll)
  349. 11:28:38 T:4244 M:919228416   DEBUG: Win32DllLoader::Load(special://xbmcbin/system/libidn-11.dll)
  350. 11:28:38 T:4244 M:919228416   DEBUG: Win32DllLoader::Load(special://xbmcbin/system/libeay32.dll)
  351. 11:28:38 T:4244 M:919228416   DEBUG: Win32DllLoader::Load(special://xbmcbin/system/libssl32.dll)
  352. 11:28:38 T:4244 M:918646784   DEBUG: Win32DllLoader::Load(ADVAPI32.DLL)
  353. 11:28:38 T:4244 M:918589440   DEBUG: Win32DllLoader::Load(KERNEL32.DLL)
  354. 11:28:38 T:4244 M:918560768   DEBUG: Win32DllLoader::Load(NETAPI32.DLL)
  355. 11:28:38 T:4244 M:918335488   DEBUG: FreeLibrary(NETAPI32.DLL) -> 05C85540
  356. 11:28:38 T:4244 M:918335488   DEBUG: Win32DllLoader::Unload NETAPI32.DLL
  357. 11:28:38 T:3244 M:917151744   DEBUG: CApplication::ExecuteXBMCAction : Translating RunScript(script.recentlyadded,limit=4)
  358. 11:28:38 T:3244 M:917151744   DEBUG: CApplication::ExecuteXBMCAction : To RunScript(script.recentlyadded,limit=4)
  359. 11:28:38 T:3244 M:917147648    INFO: initializing python engine.
  360. 11:28:38 T:3244 M:917147648   DEBUG: Win32DllLoader::Load(special://xbmcbin/system/python/python24.dll)
  361. 11:28:38 T:4244 M:916647936   DEBUG: FreeLibrary(ADVAPI32.DLL) -> 05C833D0
  362. 11:28:38 T:4244 M:916647936   DEBUG: Win32DllLoader::Unload ADVAPI32.DLL
  363. 11:28:38 T:4244 M:916635648   DEBUG: Win32DllLoader::Load(USER32.DLL)
  364. 11:28:38 T:4244 M:916611072   DEBUG: FreeLibrary(USER32.DLL) -> 05C833D0
  365. 11:28:38 T:4244 M:916606976   DEBUG: Win32DllLoader::Unload USER32.DLL
  366. 11:28:38 T:3624 M:915959808   DEBUG: thread start, auto delete: 1
  367. 11:28:38 T:3244 M:915369984   DEBUG:   msg: 'import site' failed; use -v for traceback
  368. 11:28:38 T:3244 M:913788928   DEBUG: new python thread created. id=1
  369. 11:28:38 T:3244 M:913788928   DEBUG: CApplication::ExecuteXBMCAction : Translating SetFocus(300)
  370. 11:28:38 T:3244 M:913788928   DEBUG: CApplication::ExecuteXBMCAction : To SetFocus(300)
  371. 11:28:38 T:3624 M:913743872    INFO: WEATHER: Downloading weather
  372. 11:28:38 T:4968 M:915197952   DEBUG: thread start, auto delete: 0
  373. 11:28:38 T:4968 M:913510400   DEBUG: Python thread: start processing
  374. 11:28:38 T:4968 M:907583488   DEBUG:   msg: 'import site' failed; use -v for traceback
  375. 11:28:38 T:4968 M:907902976  NOTICE: -->Python Interpreter Initialized<--
  376. 11:28:38 T:4968 M:909266944   DEBUG: XBPyThread::Process - The source file to load is C:\Program Files (x86)\XBMC\portable_data\addons\script.recentlyadded\default.py
  377. 11:28:38 T:1128 M:910565376   DEBUG: CImageLoader::DoWork - took 332 ms to load special://masterprofile/Thumbnails/c/c82d7d64.jpg
  378. 11:28:38 T:4968 M:909766656   DEBUG: XBPyThread::Process - Setting the Python path to C:\Program Files (x86)\XBMC\portable_data\addons\script.recentlyadded;C:\Program Files (x86)\XBMC\portable_data\addons\script.module.simplejson\lib;C:\Program Files (x86)\XBMC\addons\script.module.pil\lib;C:\Program Files (x86)\XBMC\portable_data\addons\script.module.elementtree\lib;C:\Program Files (x86)\XBMC\addons\script.module.pysqlite\lib;special://xbmc/system/python/DLLs;special://xbmc/system/python/Lib;special://xbmcbin/system/python/python24.zip;special://xbmc/system/python\DLLs;special://xbmc/system/python\lib;special://xbmc/system/python\lib\plat-win;special://xbmc/system/python\lib\lib-tk;C:\Program Files (x86)\XBMC
  379. 11:28:38 T:4968 M:910286848   DEBUG: XBPyThread::Process - Entering source directory C:\Program Files (x86)\XBMC\portable_data\addons\script.recentlyadded
  380. 11:28:39 T:4968 M:909307904   DEBUG: LoadLibraryExA called with flags:
  381.                                              - LOAD_WITH_ALTERED_SEARCH_PATH
  382. 11:28:39 T:4968 M:909414400   DEBUG: Win32DllLoader::Load(special://xbmc/system/python/DLLs\_socket.pyd)
  383. 11:28:39 T:4968 M:908775424   DEBUG: LoadLibraryExA called with flags:
  384.                                              - LOAD_WITH_ALTERED_SEARCH_PATH
  385. 11:28:39 T:4968 M:909729792   DEBUG: Win32DllLoader::Load(special://xbmc/system/python/DLLs\_ssl.pyd)
  386. 11:28:39 T:4968 M:908267520   DEBUG: Win32DllLoader::Load(MSVCR71.dll)
  387. 11:28:39 T:4244 M:907046912   DEBUG: FreeLibrary(KERNEL32.DLL) -> 05C83470
  388. 11:28:39 T:4244 M:907182080   DEBUG: Win32DllLoader::Unload KERNEL32.DLL
  389. 11:28:40 T:4244 M:909287424   DEBUG: Win32DllLoader::Load(secur32.dll)
  390. 11:28:40 T:4244 M:909193216   DEBUG: FileCurl::Open(078EFCBC) http://feeds.feedburner.com/tgfireice
  391. 11:28:40 T:4244 M:909168640    INFO: XCURL::DllLibCurlGlobal::easy_aquire - Created session to http://feeds.feedburner.com
  392. 11:28:40 T:3244 M:907280384   DEBUG: HttpApi Start command: SetResponseFormat  paras: SetResponseFormat
  393. 11:28:40 T:3244 M:907284480   DEBUG: HttpApi Start command: SetResponseFormat  paras: SetResponseFormat; OpenRecord;<record>
  394. 11:28:40 T:3244 M:907264000   DEBUG: HttpApi Start command: SetResponseFormat  paras: SetResponseFormat; CloseRecord;</record>
  395. 11:28:40 T:3244 M:907309056   DEBUG: HttpApi Start command: QueryVideoDatabase  paras: QueryVideoDatabase; select * from movieview order by idMovie desc limit 4
  396. 11:28:40 T:3624 M:907153408   DEBUG: FileCurl::Open(07E3FCAC) http://xoap.weather.com/weather/local/06906?cc=*&unit=m&dayf=4&prod=xoap&link=xoap&par=1004124588&key=079f24145f208494
  397. 11:28:40 T:3624 M:907153408    INFO: XCURL::DllLibCurlGlobal::easy_aquire - Created session to http://xoap.weather.com
  398. 11:28:40 T:3244 M:906186752   DEBUG: HttpApi Start command: QueryVideoDatabase  paras: QueryVideoDatabase; select * from episodeview order by idepisode desc limit 4
  399. 11:28:40 T:3244 M:906285056   DEBUG: HttpApi Start command: QueryMusicDatabase  paras: QueryMusicDatabase; select * from songview order by idSong desc limit 4
  400. 11:28:40 T:4968 M:906203136    INFO: Scriptresult: Success
  401. 11:28:40 T:4968 M:906170368    INFO: Python script stopped
  402. 11:28:40 T:4968 M:906170368   DEBUG: Thread 4968 terminating
  403. 11:28:40 T:3244 M:906211328   DEBUG: python thread 1 destructed
  404. 11:28:41 T:3624 M:906121216   DEBUG: FileCurl::Close(07E3FCAC) http://xoap.weather.com/weather/local/06906?cc=*&unit=m&dayf=4&prod=xoap&link=xoap&par=1004124588&key=079f24145f208494
  405. 11:28:41 T:3624 M:906121216    INFO: WEATHER: Weather download successful
  406. 11:28:41 T:3624 M:906108928   DEBUG: CZipManager::GetZipList - Processing zip://special%3a%2f%2fxbmc%2fmedia%2fweather%2ezip/
  407. 11:28:41 T:3244 M:907440128   DEBUG: CApplication::OnKey: 169 pressed, action is Left
  408. 11:28:41 T:4244 M:907169792   DEBUG: FileCurl::Close(078EFCBC) http://feeds.feedburner.com/tgfireice
  409. 11:28:41 T:4244 M:907169792   DEBUG: Got rss feed: http://feeds.feedburner.com/tgfireice
  410. 11:28:41 T:4244 M:907169792   DEBUG: RSS feed encoding: UTF-8
  411. 11:28:41 T:4244 M:907169792   DEBUG: Parsed rss feed: http://feeds.feedburner.com/tgfireice
  412. 11:28:41 T:4244 M:907169792   DEBUG: FileCurl::Open(078EFCBC) http://feeds.feedburner.com/xbmc
  413. 11:28:42 T:4244 M:907157504   DEBUG: FileCurl::Close(078EFCBC) http://feeds.feedburner.com/xbmc
  414. 11:28:42 T:4244 M:907157504   DEBUG: Got rss feed: http://feeds.feedburner.com/xbmc
  415. 11:28:42 T:4244 M:907157504   DEBUG: RSS feed encoding: UTF-8
  416. 11:28:42 T:4244 M:907157504   DEBUG: Parsed rss feed: http://feeds.feedburner.com/xbmc
  417. 11:28:42 T:4244 M:907157504   DEBUG: Thread 4244 terminating
  418. 11:28:42 T:3244 M:909570048   DEBUG: CApplication::OnKey: 166 pressed, action is Up
  419. 11:28:44 T:3244 M:907542528   DEBUG: Previous line repeats 3 times.
  420. 11:28:44 T:3244 M:907542528   DEBUG: CApplication::OnKey: 11 pressed, action is Select
  421. 11:28:44 T:3244 M:907505664   DEBUG: CApplication::ExecuteXBMCAction : Translating ActivateWindow(MyVideoLibrary,Addons,return)
  422. 11:28:44 T:3244 M:907505664   DEBUG: CApplication::ExecuteXBMCAction : To ActivateWindow(MyVideoLibrary,Addons,return)
  423. 11:28:44 T:3244 M:907505664   DEBUG: Activating window ID: 10025
  424. 11:28:44 T:3244 M:907505664   DEBUG: Checking if window ID 10024 is locked.
  425. 11:28:44 T:3244 M:907505664   DEBUG: ------ Window Deinit (Home.xml) ------
  426. 11:28:44 T:3244 M:907661312   DEBUG: ------ Window Init (MyVideoNav.xml) ------
  427. 11:28:44 T:3244 M:907661312    INFO: Loading skin file: MyVideoNav.xml
  428. 11:28:44 T:3244 M:907657216   ERROR: Window Translator: Can't find window videoplaylists
  429. 11:28:44 T:3244 M:907657216   ERROR: Error evaluating boolean expression [Window.IsVisible(MyVideoFiles) | Window.IsVisible(MyVideoLibrary) | Window.IsVisible(MyVideoPlaylists)]
  430. 11:28:44 T:3244 M:907657216   ERROR: Window Translator: Can't find window musicplaylists
  431. 11:28:44 T:3244 M:907657216   ERROR: Error evaluating boolean expression [Window.IsVisible(MyMusicFiles) | Window.IsVisible(MyMusicLibrary) | Window.IsVisible(MyMusicPlaylists)]
  432. 11:28:45 T:3244 M:883212288   DEBUG: CGUIMediaWindow::GetDirectory (addons://sources/video/)
  433. 11:28:45 T:3244 M:883208192   DEBUG:   ParentPath = [addons://sources/video/]
  434. 11:28:46 T:3244 M:883105792 WARNING: XFILE::CVideoDatabaseDirectory::GetLabel - Unknown nodetype requested 0
  435. 11:28:46 T:4764 M:883089408   DEBUG: thread start, auto delete: 0
  436. 11:28:46 T:4764 M:883089408   DEBUG: Thread 4764 terminating
  437. 11:28:47 T:3244 M:886026240   DEBUG: CApplication::OnKey: 166 pressed, action is Up
  438. 11:28:48 T:3244 M:886550528   DEBUG: CApplication::OnKey: 11 pressed, action is Select
  439. 11:28:48 T:3244 M:886411264   DEBUG: CGUIMediaWindow::GetDirectory (plugin://plugin.video.youtube.beta/)
  440. 11:28:48 T:3244 M:886411264   DEBUG:   ParentPath = [addons://sources/video/]
  441. 11:28:48 T:3624 M:886403072   DEBUG: XFILE::CPluginDirectory::StartScript - calling plugin You Tube Beta('plugin://plugin.video.youtube.beta/','0','')
  442. 11:28:48 T:3624 M:886403072    INFO: initializing python engine.
  443. 11:28:48 T:3624 M:886403072   DEBUG: new python thread created. id=2
  444. 11:28:48 T:3624 M:886403072   DEBUG: XFILE::CPluginDirectory::WaitOnScriptResult - waiting on the You Tube Beta plugin...
  445. 11:28:48 T:988 M:886403072   DEBUG: thread start, auto delete: 0
  446. 11:28:48 T:988 M:886403072   DEBUG: Python thread: start processing
  447. 11:28:48 T:988 M:886607872   DEBUG:   msg: 'import site' failed; use -v for traceback
  448. 11:28:48 T:988 M:886607872  NOTICE: -->Python Interpreter Initialized<--
  449. 11:28:48 T:988 M:886607872   DEBUG: XBPyThread::Process - The source file to load is C:\Program Files (x86)\XBMC\portable_data\addons\plugin.video.youtube.beta\default.py
  450. 11:28:48 T:988 M:886607872   DEBUG: XBPyThread::Process - Setting the Python path to C:\Program Files (x86)\XBMC\portable_data\addons\plugin.video.youtube.beta;C:\Program Files (x86)\XBMC\portable_data\addons\script.module.simplejson\lib;C:\Program Files (x86)\XBMC\addons\script.module.pil\lib;C:\Program Files (x86)\XBMC\portable_data\addons\script.module.elementtree\lib;C:\Program Files (x86)\XBMC\addons\script.module.pysqlite\lib;special://xbmc/system/python/DLLs;special://xbmc/system/python/Lib;special://xbmcbin/system/python/python24.zip;special://xbmc/system/python\DLLs;special://xbmc/system/python\lib;special://xbmc/system/python\lib\plat-win;special://xbmc/system/python\lib\lib-tk;C:\Program Files (x86)\XBMC
  451. 11:28:48 T:988 M:886603776   DEBUG: XBPyThread::Process - Entering source directory C:\Program Files (x86)\XBMC\portable_data\addons\plugin.video.youtube.beta
  452. 11:28:48 T:3244 M:884334592   DEBUG: ------ Window Init (DialogBusy.xml) ------
  453. 11:28:49 T:3624 M:884613120    INFO: Loading skin file: DialogProgress.xml
  454. 11:28:49 T:3624 M:884609024   DEBUG: ------ Window Init (DialogProgress.xml) ------
  455. 11:28:49 T:3244 M:884555776   DEBUG: ------ Window Init (DialogAddonSettings.xml) ------
  456. 11:28:49 T:3244 M:884555776    INFO: Loading skin file: DialogAddonSettings.xml
  457. 11:28:50 T:3244 M:886149120   DEBUG: ------ Window Deinit (DialogBusy.xml) ------
  458. 11:28:51 T:3244 M:886435840   DEBUG: CApplication::OnKey: 168 pressed, action is Right
  459. 11:28:53 T:3244 M:886042624   DEBUG: CApplication::OnKey: 166 pressed, action is Up
  460. 11:28:54 T:3244 M:886165504   DEBUG: CApplication::OnKey: 11 pressed, action is Select
  461. 11:28:54 T:3244 M:886300672   DEBUG: ------ Window Deinit (DialogAddonSettings.xml) ------
  462. 11:28:54 T:988 M:886300672  NOTICE: YouTube login
  463. 11:28:54 T:988 M:886300672  NOTICE: YouTube login data username <type 'str'> - Password <type 'str'>
  464. 11:28:54 T:988 M:886296576  NOTICE: YouTube login connect
  465. 11:28:54 T:988 M:886190080   DEBUG: Win32DllLoader::Load(ADVAPI32.DLL)
  466. 11:28:54 T:988 M:886190080   DEBUG: Win32DllLoader::Load(KERNEL32.DLL)
  467. 11:28:54 T:988 M:886190080   DEBUG: Win32DllLoader::Load(USER32.DLL)
  468. 11:28:54 T:988 M:886190080   DEBUG: Win32DllLoader::Load(NETAPI32.DLL)
  469. 11:28:54 T:988 M:886005760   DEBUG: FreeLibrary(NETAPI32.DLL) -> 05C82110
  470. 11:28:54 T:988 M:886005760   DEBUG: Win32DllLoader::Unload NETAPI32.DLL
  471. 11:28:54 T:988 M:886190080   DEBUG: FreeLibrary(ADVAPI32.DLL) -> 05C7E790
  472. 11:28:54 T:988 M:886190080   DEBUG: Win32DllLoader::Unload ADVAPI32.DLL
  473. 11:28:54 T:988 M:886169600   DEBUG: FreeLibrary(USER32.DLL) -> 05C820C0
  474. 11:28:54 T:988 M:886169600   DEBUG: Win32DllLoader::Unload USER32.DLL
  475. 11:29:11 T:3244 M:885547008    INFO: XCURL::DllLibCurlGlobal::CheckIdle - Closing session to http://xoap.weather.com (easy=02BFE850, multi=01447A18)
  476. 11:29:12 T:3244 M:886226944    INFO: XCURL::DllLibCurlGlobal::CheckIdle - Closing session to http://feeds.feedburner.com (easy=02BD2470, multi=01447908)
  477. 11:29:12 T:3244 M:886980608   DEBUG: FreeLibrary(secur32.dll) -> 05C83470
  478. 11:29:12 T:3244 M:887177216   DEBUG: Win32DllLoader::Unload secur32.dll
  479. 11:29:13 T:1128 M:886247424   DEBUG: Thread 1128 terminating (autodelete)
  480. 11:29:20 T:3244 M:887300096   DEBUG: SECTION:UnloadDelayed(DLL: special://xbmcbin/system/ImageLib.dll)
  481. 11:29:20 T:3244 M:883757056   DEBUG: Win32DllLoader::Unload ImageLib.dll
  482. 11:29:42 T:3244 M:887668736   DEBUG: SECTION:UnloadDelayed(DLL: special://xbmcbin/system/libcurl.dll)
  483. 11:29:42 T:3244 M:884518912   DEBUG: Win32DllLoader::Unload libcurl.dll
  484. 11:29:42 T:3244 M:884625408   DEBUG: FreeLibrary(libidn-11.dll) -> 05C83510
  485. 11:29:42 T:3244 M:884768768   DEBUG: Win32DllLoader::Unload libidn-11.dll
  486. 11:29:42 T:3244 M:887951360   DEBUG: FreeLibrary(libeay32.dll) -> 05C834C0
  487. 11:29:42 T:3244 M:887885824   DEBUG: FreeLibrary(libssl32.dll) -> 05C85590
  488. 11:29:42 T:3244 M:887885824   DEBUG: Win32DllLoader::Unload libssl32.dll
  489. 11:29:42 T:3244 M:887885824   DEBUG: FreeLibrary(libeay32.dll) -> 05C834C0
  490. 11:29:42 T:3244 M:887885824   DEBUG: Win32DllLoader::Unload libeay32.dll
  491. 11:29:48 T:988 M:889257984   DEBUG: FreeLibrary(KERNEL32.DLL) -> 05C82070
  492. 11:29:48 T:988 M:889380864   DEBUG: Win32DllLoader::Unload KERNEL32.DLL
  493. 11:29:48 T:988 M:889356288  NOTICE: YouTube login failed, hit ioerror except: [0] <urllib2.URLError instance at 0x0B113198>
  494. 11:29:48 T:988 M:889356288    INFO: -->Python script returned the following error<--
  495. 11:29:48 T:988 M:889356288   ERROR: Error Type: exceptions.UnboundLocalError
  496. 11:29:48 T:988 M:889356288   ERROR: Error Contents: local variable 'error' referenced before assignment
  497. 11:29:48 T:988 M:889241600   ERROR: Traceback (most recent call last):
  498.                                               File "C:\Program Files (x86)\XBMC\portable_data\addons\plugin.video.youtube.beta\default.py", line 34, in ?
  499.                                                 navigator.login()
  500.                                               File "C:\Program Files (x86)\XBMC\portable_data\addons\plugin.video.youtube.beta\YouTubeNavigation.py", line 256, in login
  501.                                                 (result, status) = core.login()
  502.                                               File "C:\Program Files (x86)\XBMC\portable_data\addons\plugin.video.youtube.beta\YouTubeCore.py", line 110, in login
  503.                                                 return ( error, 303 )
  504.                                             UnboundLocalError: local variable 'error' referenced before assignment
  505. 11:29:48 T:988 M:889241600    INFO: -->End of Python script error report<--
  506. 11:29:48 T:988 M:889237504    INFO: Python script stopped
  507. 11:29:48 T:988 M:889237504   DEBUG: Thread 988 terminating
  508. 11:29:48 T:3244 M:889253888   DEBUG: python thread 2 destructed
  509. 11:29:48 T:3244 M:889065472   DEBUG: ------ Window Init (DialogKaiToast.xml) ------
  510. 11:29:48 T:3624 M:889065472   DEBUG:  XFILE::CPluginDirectory::WaitOnScriptResult - plugin exited prematurely - terminating
  511. 11:29:48 T:3244 M:889065472   ERROR: XFILE::CDirectory::GetDirectory - Error getting plugin://plugin.video.youtube.beta/
  512. 11:29:48 T:3244 M:889061376   ERROR: CGUIMediaWindow::GetDirectory(plugin://plugin.video.youtube.beta/) failed
  513. 11:29:48 T:3244 M:889061376   DEBUG: CGUIMediaWindow::GetDirectory (addons://sources/video/)
  514. 11:29:48 T:3244 M:889061376   DEBUG:   ParentPath = []
  515. 11:29:48 T:3244 M:889044992 WARNING: XFILE::CVideoDatabaseDirectory::GetLabel - Unknown nodetype requested 0
  516. 11:29:48 T:2444 M:889040896   DEBUG: thread start, auto delete: 0
  517. 11:29:48 T:2444 M:889040896   DEBUG: Thread 2444 terminating
  518. 11:29:48 T:3244 M:889069568   DEBUG: ------ Window Deinit (DialogProgress.xml) ------
  519. 11:29:54 T:3244 M:889344000   DEBUG: ------ Window Deinit (DialogKaiToast.xml) ------
  520. 11:29:55 T:2628 M:889344000  NOTICE: ES: Client  from 127.0.0.1 timed out
  521. 11:29:58 T:3244 M:889516032    INFO: Python, unloading python24.dll because no scripts are running anymore
  522. 11:29:58 T:3244 M:889749504   DEBUG: XBPython::UnloadExtensionLibs, clearing python extension libraries
  523. 11:29:58 T:3244 M:889741312   DEBUG: Win32DllLoader::Unload DLLs\_socket.pyd
  524. 11:29:58 T:3244 M:889761792   DEBUG: FreeLibrary(python24.dll) -> 05C83290
  525. 11:29:58 T:3244 M:889839616   DEBUG: Win32DllLoader::Unload DLLs\_ssl.pyd
  526. 11:29:58 T:3244 M:889839616   DEBUG: FreeLibrary(python24.dll) -> 05C83290
  527. 11:29:58 T:3244 M:889839616   DEBUG: FreeLibrary(MSVCR71.dll) -> 05C84500
  528. 11:29:58 T:3244 M:889839616   DEBUG: Win32DllLoader::Unload MSVCR71.dll
  529. 11:29:58 T:3244 M:890396672   DEBUG: Win32DllLoader::Unload python24.dll
clone this paste RAW Paste Data